sensor_id;sensor_type;location;lat;lon;timestamp;P1;durP1;ratioP1;P2;durP2;ratioP2
48861;SDS011;34681;49.188;-0.374;2023-08-01T00:01:02;1.20;;;1.10;;
48861;SDS011;34681;49.188;-0.374;2023-08-01T00:03:28;1.47;;;1.27;;
48861;SDS011;34681;49.188;-0.374;2023-08-01T00:05:53;2.17;;;1.10;;
48861;SDS011;34681;49.188;-0.374;2023-08-01T00:08:20;2.13;;;1.83;;
48861;SDS011;34681;49.188;-0.374;2023-08-01T00:10:45;1.60;;;1.50;;
48861;SDS011;34681;49.188;-0.374;2023-08-01T00:13:11;1.10;;;1.10;;
48861;SDS011;34681;49.188;-0.374;2023-08-01T00:15:36;4.20;;;1.47;;
48861;SDS011;34681;49.188;-0.374;2023-08-01T00:18:02;1.77;;;1.30;;
48861;SDS011;34681;49.188;-0.374;2023-08-01T00:20:27;1.60;;;1.50;;
48861;SDS011;34681;49.188;-0.374;2023-08-01T00:22:52;1.20;;;1.10;;
48861;SDS011;34681;49.188;-0.374;2023-08-01T00:25:18;1.33;;;1.23;;
48861;SDS011;34681;49.188;-0.374;2023-08-01T00:27:43;1.27;;;1.13;;
48861;SDS011;34681;49.188;-0.374;2023-08-01T00:30:09;1.23;;;1.13;;
48861;SDS011;34681;49.188;-0.374;2023-08-01T00:32:35;1.40;;;1.30;;
48861;SDS011;34681;49.188;-0.374;2023-08-01T00:35:01;0.90;;;0.90;;
48861;SDS011;34681;49.188;-0.374;2023-08-01T00:37:26;1.40;;;1.30;;
48861;SDS011;34681;49.188;-0.374;2023-08-01T00:39:52;3.03;;;1.27;;
48861;SDS011;34681;49.188;-0.374;2023-08-01T00:42:17;1.10;;;1.10;;
48861;SDS011;34681;49.188;-0.374;2023-08-01T00:44:42;1.40;;;1.30;;
48861;SDS011;34681;49.188;-0.374;2023-08-01T00:47:08;1.27;;;1.13;;
48861;SDS011;34681;49.188;-0.374;2023-08-01T00:49:34;1.83;;;1.33;;
48861;SDS011;34681;49.188;-0.374;2023-08-01T00:52:00;1.30;;;1.20;;
48861;SDS011;34681;49.188;-0.374;2023-08-01T00:54:25;2.40;;;1.40;;
48861;SDS011;34681;49.188;-0.374;2023-08-01T00:56:50;1.30;;;1.20;;
48861;SDS011;34681;49.188;-0.374;2023-08-01T00:59:16;1.50;;;1.40;;
48861;SDS011;34681;49.188;-0.374;2023-08-01T01:01:41;3.03;;;1.60;;
48861;SDS011;34681;49.188;-0.374;2023-08-01T01:04:07;1.40;;;1.30;;
48861;SDS011;34681;49.188;-0.374;2023-08-01T01:06:53;2.40;;;1.50;;
48861;SDS011;34681;49.188;-0.374;2023-08-01T01:09:24;2.23;;;2.10;;
48861;SDS011;34681;49.188;-0.374;2023-08-01T01:11:53;2.00;;;1.90;;
48861;SDS011;34681;49.188;-0.374;2023-08-01T01:14:19;2.53;;;2.33;;
48861;SDS011;34681;49.188;-0.374;2023-08-01T01:16:44;2.93;;;2.30;;
48861;SDS011;34681;49.188;-0.374;2023-08-01T01:19:09;3.03;;;2.30;;
48861;SDS011;34681;49.188;-0.374;2023-08-01T01:21:35;2.53;;;1.97;;
48861;SDS011;34681;49.188;-0.374;2023-08-01T01:24:03;3.10;;;2.47;;
48861;SDS011;34681;49.188;-0.374;2023-08-01T01:26:31;2.80;;;2.57;;
48861;SDS011;34681;49.188;-0.374;2023-08-01T01:28:58;2.70;;;2.50;;
48861;SDS011;34681;49.188;-0.374;2023-08-01T01:31:25;3.17;;;2.83;;
48861;SDS011;34681;49.188;-0.374;2023-08-01T01:33:51;2.90;;;2.63;;
48861;SDS011;34681;49.188;-0.374;2023-08-01T01:36:17;3.70;;;2.77;;
48861;SDS011;34681;49.188;-0.374;2023-08-01T01:38:43;2.43;;;2.23;;
48861;SDS011;34681;49.188;-0.374;2023-08-01T01:41:08;2.53;;;2.33;;
48861;SDS011;34681;49.188;-0.374;2023-08-01T01:43:33;3.77;;;2.90;;
48861;SDS011;34681;49.188;-0.374;2023-08-01T01:45:59;6.63;;;2.97;;
48861;SDS011;34681;49.188;-0.374;2023-08-01T01:48:24;2.60;;;2.40;;
48861;SDS011;34681;49.188;-0.374;2023-08-01T01:50:49;4.03;;;3.40;;
48861;SDS011;34681;49.188;-0.374;2023-08-01T01:53:15;3.07;;;2.77;;
48861;SDS011;34681;49.188;-0.374;2023-08-01T01:55:40;4.27;;;2.93;;
48861;SDS011;34681;49.188;-0.374;2023-08-01T01:58:05;4.43;;;3.03;;
48861;SDS011;34681;49.188;-0.374;2023-08-01T02:00:31;3.47;;;2.70;;
48861;SDS011;34681;49.188;-0.374;2023-08-01T02:02:56;5.20;;;3.30;;
48861;SDS011;34681;49.188;-0.374;2023-08-01T02:05:22;5.93;;;3.20;;
48861;SDS011;34681;49.188;-0.374;2023-08-01T02:07:47;9.17;;;3.13;;
48861;SDS011;34681;49.188;-0.374;2023-08-01T02:10:12;3.93;;;2.97;;
48861;SDS011;34681;49.188;-0.374;2023-08-01T02:12:38;3.43;;;3.13;;
48861;SDS011;34681;49.188;-0.374;2023-08-01T02:15:03;4.37;;;3.67;;
48861;SDS011;34681;49.188;-0.374;2023-08-01T02:17:29;4.10;;;3.13;;
48861;SDS011;34681;49.188;-0.374;2023-08-01T02:19:55;5.90;;;3.20;;
48861;SDS011;34681;49.188;-0.374;2023-08-01T02:22:20;6.03;;;4.00;;
48861;SDS011;34681;49.188;-0.374;2023-08-01T02:24:45;3.93;;;2.90;;
48861;SDS011;34681;49.188;-0.374;2023-08-01T02:27:11;6.27;;;3.70;;
48861;SDS011;34681;49.188;-0.374;2023-08-01T02:29:36;6.30;;;3.60;;
48861;SDS011;34681;49.188;-0.374;2023-08-01T02:32:01;4.73;;;3.73;;
48861;SDS011;34681;49.188;-0.374;2023-08-01T02:34:27;5.60;;;4.00;;
48861;SDS011;34681;49.188;-0.374;2023-08-01T02:36:52;6.70;;;3.50;;
48861;SDS011;34681;49.188;-0.374;2023-08-01T02:39:18;5.90;;;3.47;;
48861;SDS011;34681;49.188;-0.374;2023-08-01T02:41:43;3.93;;;3.50;;
48861;SDS011;34681;49.188;-0.374;2023-08-01T02:44:09;3.90;;;3.50;;
48861;SDS011;34681;49.188;-0.374;2023-08-01T02:46:34;5.83;;;3.77;;
48861;SDS011;34681;49.188;-0.374;2023-08-01T02:48:59;6.63;;;3.97;;
48861;SDS011;34681;49.188;-0.374;2023-08-01T02:51:25;6.27;;;3.47;;
48861;SDS011;34681;49.188;-0.374;2023-08-01T02:53:50;4.07;;;3.50;;
48861;SDS011;34681;49.188;-0.374;2023-08-01T02:56:15;6.90;;;3.53;;
48861;SDS011;34681;49.188;-0.374;2023-08-01T02:58:41;9.20;;;3.37;;
48861;SDS011;34681;49.188;-0.374;2023-08-01T03:01:07;6.97;;;4.20;;
48861;SDS011;34681;49.188;-0.374;2023-08-01T03:03:34;10.33;;;4.10;;
48861;SDS011;34681;49.188;-0.374;2023-08-01T03:06:01;5.90;;;3.80;;
48861;SDS011;34681;49.188;-0.374;2023-08-01T03:08:26;4.23;;;3.37;;
48861;SDS011;34681;49.188;-0.374;2023-08-01T03:10:53;6.47;;;3.83;;
48861;SDS011;34681;49.188;-0.374;2023-08-01T03:13:19;6.17;;;3.97;;
48861;SDS011;34681;49.188;-0.374;2023-08-01T03:15:45;6.93;;;3.97;;
48861;SDS011;34681;49.188;-0.374;2023-08-01T03:18:10;6.83;;;3.83;;
48861;SDS011;34681;49.188;-0.374;2023-08-01T03:20:36;5.73;;;4.03;;
48861;SDS011;34681;49.188;-0.374;2023-08-01T03:23:01;10.87;;;4.43;;
48861;SDS011;34681;49.188;-0.374;2023-08-01T03:25:27;6.20;;;3.93;;
48861;SDS011;34681;49.188;-0.374;2023-08-01T03:27:52;10.13;;;3.97;;
48861;SDS011;34681;49.188;-0.374;2023-08-01T03:30:19;6.13;;;4.20;;
48861;SDS011;34681;49.188;-0.374;2023-08-01T03:32:45;6.40;;;4.37;;
48861;SDS011;34681;49.188;-0.374;2023-08-01T03:35:11;8.30;;;4.20;;
48861;SDS011;34681;49.188;-0.374;2023-08-01T03:37:36;7.03;;;3.70;;
48861;SDS011;34681;49.188;-0.374;2023-08-01T03:40:03;5.67;;;3.90;;
48861;SDS011;34681;49.188;-0.374;2023-08-01T03:42:28;5.83;;;3.63;;
48861;SDS011;34681;49.188;-0.374;2023-08-01T03:44:54;8.43;;;4.10;;
48861;SDS011;34681;49.188;-0.374;2023-08-01T03:47:19;5.60;;;4.30;;
48861;SDS011;34681;49.188;-0.374;2023-08-01T03:49:45;8.47;;;4.50;;
48861;SDS011;34681;49.188;-0.374;2023-08-01T03:52:10;7.63;;;4.03;;
48861;SDS011;34681;49.188;-0.374;2023-08-01T03:54:35;6.63;;;4.00;;
48861;SDS011;34681;49.188;-0.374;2023-08-01T03:57:01;7.80;;;5.17;;
48861;SDS011;34681;49.188;-0.374;2023-08-01T03:59:27;13.63;;;4.67;;
48861;SDS011;34681;49.188;-0.374;2023-08-01T04:01:52;7.83;;;4.00;;
48861;SDS011;34681;49.188;-0.374;2023-08-01T04:04:18;14.40;;;5.03;;
48861;SDS011;34681;49.188;-0.374;2023-08-01T04:06:45;11.70;;;4.73;;
48861;SDS011;34681;49.188;-0.374;2023-08-01T04:09:10;10.07;;;4.57;;
48861;SDS011;34681;49.188;-0.374;2023-08-01T04:11:35;6.27;;;4.67;;
48861;SDS011;34681;49.188;-0.374;2023-08-01T04:14:01;7.27;;;4.70;;
48861;SDS011;34681;49.188;-0.374;2023-08-01T04:16:26;7.03;;;4.10;;
48861;SDS011;34681;49.188;-0.374;2023-08-01T04:18:51;6.97;;;4.53;;
48861;SDS011;34681;49.188;-0.374;2023-08-01T04:21:18;11.00;;;4.70;;
48861;SDS011;34681;49.188;-0.374;2023-08-01T04:23:43;10.83;;;4.13;;
48861;SDS011;34681;49.188;-0.374;2023-08-01T04:26:08;7.83;;;4.80;;
48861;SDS011;34681;49.188;-0.374;2023-08-01T04:28:34;10.93;;;4.87;;
48861;SDS011;34681;49.188;-0.374;2023-08-01T04:31:00;14.93;;;5.13;;
48861;SDS011;34681;49.188;-0.374;2023-08-01T04:33:25;5.40;;;4.17;;
48861;SDS011;34681;49.188;-0.374;2023-08-01T04:35:51;5.57;;;4.53;;
48861;SDS011;34681;49.188;-0.374;2023-08-01T04:38:16;5.47;;;3.93;;
48861;SDS011;34681;49.188;-0.374;2023-08-01T04:40:41;11.60;;;4.30;;
48861;SDS011;34681;49.188;-0.374;2023-08-01T04:43:07;10.03;;;4.50;;
48861;SDS011;34681;49.188;-0.374;2023-08-01T04:45:33;9.10;;;4.27;;
48861;SDS011;34681;49.188;-0.374;2023-08-01T04:47:58;11.40;;;4.20;;
48861;SDS011;34681;49.188;-0.374;2023-08-01T04:50:23;7.67;;;4.37;;
48861;SDS011;34681;49.188;-0.374;2023-08-01T04:52:49;8.07;;;4.20;;
48861;SDS011;34681;49.188;-0.374;2023-08-01T04:55:14;11.33;;;4.37;;
48861;SDS011;34681;49.188;-0.374;2023-08-01T04:57:39;5.03;;;3.93;;
48861;SDS011;34681;49.188;-0.374;2023-08-01T05:00:05;12.13;;;4.97;;
48861;SDS011;34681;49.188;-0.374;2023-08-01T05:02:31;10.43;;;4.70;;
48861;SDS011;34681;49.188;-0.374;2023-08-01T05:04:56;5.80;;;3.70;;
48861;SDS011;34681;49.188;-0.374;2023-08-01T05:07:21;9.07;;;5.23;;
48861;SDS011;34681;49.188;-0.374;2023-08-01T05:09:47;9.40;;;4.47;;
48861;SDS011;34681;49.188;-0.374;2023-08-01T05:12:12;8.73;;;4.80;;
48861;SDS011;34681;49.188;-0.374;2023-08-01T05:14:37;7.23;;;4.30;;
48861;SDS011;34681;49.188;-0.374;2023-08-01T05:17:03;10.20;;;4.80;;
48861;SDS011;34681;49.188;-0.374;2023-08-01T05:19:28;10.10;;;6.27;;
48861;SDS011;34681;49.188;-0.374;2023-08-01T05:21:54;7.70;;;4.60;;
48861;SDS011;34681;49.188;-0.374;2023-08-01T05:24:20;8.90;;;4.77;;
48861;SDS011;34681;49.188;-0.374;2023-08-01T05:26:45;9.13;;;4.10;;
48861;SDS011;34681;49.188;-0.374;2023-08-01T05:29:11;5.97;;;3.93;;
48861;SDS011;34681;49.188;-0.374;2023-08-01T05:31:36;7.90;;;4.97;;
48861;SDS011;34681;49.188;-0.374;2023-08-01T05:34:01;7.60;;;4.00;;
48861;SDS011;34681;49.188;-0.374;2023-08-01T05:36:27;7.77;;;4.20;;
48861;SDS011;34681;49.188;-0.374;2023-08-01T05:38:52;6.70;;;4.63;;
48861;SDS011;34681;49.188;-0.374;2023-08-01T05:41:17;6.90;;;3.97;;
48861;SDS011;34681;49.188;-0.374;2023-08-01T05:43:43;7.30;;;4.10;;
48861;SDS011;34681;49.188;-0.374;2023-08-01T05:46:08;5.17;;;4.10;;
48861;SDS011;34681;49.188;-0.374;2023-08-01T05:48:33;8.70;;;4.67;;
48861;SDS011;34681;49.188;-0.374;2023-08-01T05:51:17;6.33;;;4.53;;
48861;SDS011;34681;49.188;-0.374;2023-08-01T05:53:42;9.60;;;4.87;;
48861;SDS011;34681;49.188;-0.374;2023-08-01T05:56:07;13.40;;;4.90;;
48861;SDS011;34681;49.188;-0.374;2023-08-01T05:58:33;10.77;;;3.90;;
48861;SDS011;34681;49.188;-0.374;2023-08-01T06:00:58;9.33;;;4.80;;
48861;SDS011;34681;49.188;-0.374;2023-08-01T06:03:24;10.80;;;5.03;;
48861;SDS011;34681;49.188;-0.374;2023-08-01T06:05:49;9.40;;;4.90;;
48861;SDS011;34681;49.188;-0.374;2023-08-01T06:08:14;9.10;;;4.37;;
48861;SDS011;34681;49.188;-0.374;2023-08-01T06:10:40;9.13;;;4.47;;
48861;SDS011;34681;49.188;-0.374;2023-08-01T06:13:06;5.70;;;4.73;;
48861;SDS011;34681;49.188;-0.374;2023-08-01T06:15:31;5.80;;;3.93;;
48861;SDS011;34681;49.188;-0.374;2023-08-01T06:17:57;11.40;;;4.80;;
48861;SDS011;34681;49.188;-0.374;2023-08-01T06:20:22;6.63;;;4.23;;
48861;SDS011;34681;49.188;-0.374;2023-08-01T06:22:47;6.00;;;3.93;;
48861;SDS011;34681;49.188;-0.374;2023-08-01T06:25:14;9.80;;;4.20;;
48861;SDS011;34681;49.188;-0.374;2023-08-01T06:27:39;9.70;;;6.00;;
48861;SDS011;34681;49.188;-0.374;2023-08-01T06:30:04;10.20;;;4.80;;
48861;SDS011;34681;49.188;-0.374;2023-08-01T06:32:31;9.03;;;4.43;;
48861;SDS011;34681;49.188;-0.374;2023-08-01T06:34:56;8.60;;;4.70;;
48861;SDS011;34681;49.188;-0.374;2023-08-01T06:37:21;8.80;;;4.70;;
48861;SDS011;34681;49.188;-0.374;2023-08-01T06:39:47;11.27;;;4.87;;
48861;SDS011;34681;49.188;-0.374;2023-08-01T06:42:12;11.30;;;4.70;;
48861;SDS011;34681;49.188;-0.374;2023-08-01T06:44:37;11.93;;;5.07;;
48861;SDS011;34681;49.188;-0.374;2023-08-01T06:47:03;10.63;;;5.00;;
48861;SDS011;34681;49.188;-0.374;2023-08-01T06:49:28;7.37;;;4.80;;
48861;SDS011;34681;49.188;-0.374;2023-08-01T06:51:54;10.43;;;4.93;;
48861;SDS011;34681;49.188;-0.374;2023-08-01T06:54:19;7.30;;;4.63;;
48861;SDS011;34681;49.188;-0.374;2023-08-01T06:56:44;7.27;;;4.20;;
48861;SDS011;34681;49.188;-0.374;2023-08-01T06:59:14;8.53;;;5.30;;
48861;SDS011;34681;49.188;-0.374;2023-08-01T07:01:40;7.97;;;4.53;;
48861;SDS011;34681;49.188;-0.374;2023-08-01T07:04:08;8.67;;;4.03;;
48861;SDS011;34681;49.188;-0.374;2023-08-01T07:06:36;13.13;;;5.63;;
48861;SDS011;34681;49.188;-0.374;2023-08-01T07:09:02;8.77;;;5.13;;
48861;SDS011;34681;49.188;-0.374;2023-08-01T07:11:27;10.03;;;4.53;;
48861;SDS011;34681;49.188;-0.374;2023-08-01T07:13:53;10.67;;;4.27;;
48861;SDS011;34681;49.188;-0.374;2023-08-01T07:16:18;9.33;;;5.07;;
48861;SDS011;34681;49.188;-0.374;2023-08-01T07:18:43;9.87;;;4.67;;
48861;SDS011;34681;49.188;-0.374;2023-08-01T07:21:09;6.80;;;4.20;;
48861;SDS011;34681;49.188;-0.374;2023-08-01T07:23:34;7.03;;;4.70;;
48861;SDS011;34681;49.188;-0.374;2023-08-01T07:26:00;8.37;;;4.47;;
48861;SDS011;34681;49.188;-0.374;2023-08-01T07:28:26;6.20;;;3.67;;
48861;SDS011;34681;49.188;-0.374;2023-08-01T07:31:01;7.70;;;4.60;;
48861;SDS011;34681;49.188;-0.374;2023-08-01T07:33:29;5.67;;;3.70;;
48861;SDS011;34681;49.188;-0.374;2023-08-01T07:35:55;5.10;;;4.03;;
48861;SDS011;34681;49.188;-0.374;2023-08-01T07:38:20;6.70;;;4.63;;
48861;SDS011;34681;49.188;-0.374;2023-08-01T07:40:46;8.77;;;4.13;;
48861;SDS011;34681;49.188;-0.374;2023-08-01T07:43:11;7.40;;;4.00;;
48861;SDS011;34681;49.188;-0.374;2023-08-01T07:45:37;6.73;;;3.97;;
48861;SDS011;34681;49.188;-0.374;2023-08-01T07:48:03;5.50;;;3.70;;
48861;SDS011;34681;49.188;-0.374;2023-08-01T07:50:29;5.80;;;3.40;;
48861;SDS011;34681;49.188;-0.374;2023-08-01T07:52:54;5.70;;;3.70;;
48861;SDS011;34681;49.188;-0.374;2023-08-01T07:55:19;6.30;;;3.90;;
48861;SDS011;34681;49.188;-0.374;2023-08-01T07:57:46;4.80;;;3.57;;
48861;SDS011;34681;49.188;-0.374;2023-08-01T08:00:14;7.33;;;3.80;;
48861;SDS011;34681;49.188;-0.374;2023-08-01T08:02:44;4.93;;;3.30;;
48861;SDS011;34681;49.188;-0.374;2023-08-01T08:05:10;5.00;;;3.40;;
48861;SDS011;34681;49.188;-0.374;2023-08-01T08:07:38;6.97;;;4.20;;
48861;SDS011;34681;49.188;-0.374;2023-08-01T08:10:04;4.10;;;3.63;;
48861;SDS011;34681;49.188;-0.374;2023-08-01T08:12:31;5.27;;;3.83;;
48861;SDS011;34681;49.188;-0.374;2023-08-01T08:14:56;4.63;;;3.30;;
48861;SDS011;34681;49.188;-0.374;2023-08-01T08:17:21;5.40;;;3.20;;
48861;SDS011;34681;49.188;-0.374;2023-08-01T08:19:47;5.53;;;3.80;;
48861;SDS011;34681;49.188;-0.374;2023-08-01T08:22:12;5.03;;;3.70;;
48861;SDS011;34681;49.188;-0.374;2023-08-01T08:24:38;7.70;;;3.70;;
48861;SDS011;34681;49.188;-0.374;2023-08-01T08:27:03;3.40;;;3.03;;
48861;SDS011;34681;49.188;-0.374;2023-08-01T08:29:29;6.27;;;3.93;;
48861;SDS011;34681;49.188;-0.374;2023-08-01T08:31:55;4.43;;;3.20;;
48861;SDS011;34681;49.188;-0.374;2023-08-01T08:34:20;5.90;;;3.83;;
48861;SDS011;34681;49.188;-0.374;2023-08-01T08:36:46;5.00;;;3.57;;
48861;SDS011;34681;49.188;-0.374;2023-08-01T08:39:11;5.10;;;3.20;;
48861;SDS011;34681;49.188;-0.374;2023-08-01T08:41:44;5.63;;;3.80;;
48861;SDS011;34681;49.188;-0.374;2023-08-01T08:44:12;6.43;;;2.87;;
48861;SDS011;34681;49.188;-0.374;2023-08-01T08:46:41;3.67;;;3.30;;
48861;SDS011;34681;49.188;-0.374;2023-08-01T08:49:08;8.07;;;4.30;;
48861;SDS011;34681;49.188;-0.374;2023-08-01T08:51:34;4.10;;;3.27;;
48861;SDS011;34681;49.188;-0.374;2023-08-01T08:54:01;4.77;;;3.33;;
48861;SDS011;34681;49.188;-0.374;2023-08-01T08:56:28;5.93;;;3.20;;
48861;SDS011;34681;49.188;-0.374;2023-08-01T08:58:54;6.60;;;3.00;;
48861;SDS011;34681;49.188;-0.374;2023-08-01T09:01:21;6.53;;;3.10;;
48861;SDS011;34681;49.188;-0.374;2023-08-01T09:03:46;12.90;;;3.50;;
48861;SDS011;34681;49.188;-0.374;2023-08-01T09:06:13;3.33;;;3.03;;
48861;SDS011;34681;49.188;-0.374;2023-08-01T09:08:40;4.40;;;3.13;;
48861;SDS011;34681;49.188;-0.374;2023-08-01T09:11:15;3.20;;;2.87;;
48861;SDS011;34681;49.188;-0.374;2023-08-01T09:13:40;5.03;;;2.97;;
48861;SDS011;34681;49.188;-0.374;2023-08-01T09:16:06;4.97;;;2.87;;
48861;SDS011;34681;49.188;-0.374;2023-08-01T09:18:31;3.63;;;3.30;;
48861;SDS011;34681;49.188;-0.374;2023-08-01T09:20:57;3.07;;;2.87;;
48861;SDS011;34681;49.188;-0.374;2023-08-01T09:23:27;5.20;;;3.03;;
48861;SDS011;34681;49.188;-0.374;2023-08-01T09:25:52;3.70;;;2.90;;
48861;SDS011;34681;49.188;-0.374;2023-08-01T09:28:21;4.57;;;3.47;;
48861;SDS011;34681;49.188;-0.374;2023-08-01T09:30:52;3.60;;;2.83;;
48861;SDS011;34681;49.188;-0.374;2023-08-01T09:33:22;4.03;;;2.87;;
48861;SDS011;34681;49.188;-0.374;2023-08-01T09:35:52;3.40;;;3.17;;
48861;SDS011;34681;49.188;-0.374;2023-08-01T09:38:17;8.03;;;4.80;;
48861;SDS011;34681;49.188;-0.374;2023-08-01T09:40:44;5.73;;;2.80;;
48861;SDS011;34681;49.188;-0.374;2023-08-01T09:43:10;11.67;;;7.20;;
48861;SDS011;34681;49.188;-0.374;2023-08-01T09:45:36;15.20;;;6.30;;
48861;SDS011;34681;49.188;-0.374;2023-08-01T09:48:02;7.10;;;5.87;;
48861;SDS011;34681;49.188;-0.374;2023-08-01T09:50:27;16.47;;;7.67;;
48861;SDS011;34681;49.188;-0.374;2023-08-01T09:52:53;49.50;;;23.13;;
48861;SDS011;34681;49.188;-0.374;2023-08-01T09:55:40;20.70;;;8.90;;
48861;SDS011;34681;49.188;-0.374;2023-08-01T09:58:05;16.43;;;5.83;;
48861;SDS011;34681;49.188;-0.374;2023-08-01T10:00:32;32.70;;;14.47;;
48861;SDS011;34681;49.188;-0.374;2023-08-01T10:02:59;61.60;;;28.73;;
48861;SDS011;34681;49.188;-0.374;2023-08-01T10:05:26;73.17;;;29.23;;
48861;SDS011;34681;49.188;-0.374;2023-08-01T10:07:58;162.87;;;69.80;;
48861;SDS011;34681;49.188;-0.374;2023-08-01T10:10:26;125.63;;;58.90;;
48861;SDS011;34681;49.188;-0.374;2023-08-01T10:12:53;105.57;;;49.20;;
48861;SDS011;34681;49.188;-0.374;2023-08-01T10:15:19;153.70;;;66.67;;
48861;SDS011;34681;49.188;-0.374;2023-08-01T10:17:45;135.17;;;54.40;;
48861;SDS011;34681;49.188;-0.374;2023-08-01T10:20:10;129.20;;;59.10;;
48861;SDS011;34681;49.188;-0.374;2023-08-01T10:22:37;112.63;;;51.90;;
48861;SDS011;34681;49.188;-0.374;2023-08-01T10:25:04;112.43;;;48.43;;
48861;SDS011;34681;49.188;-0.374;2023-08-01T10:27:32;79.40;;;36.40;;
48861;SDS011;34681;49.188;-0.374;2023-08-01T10:30:04;90.73;;;38.70;;
48861;SDS011;34681;49.188;-0.374;2023-08-01T10:32:31;69.37;;;33.70;;
48861;SDS011;34681;49.188;-0.374;2023-08-01T10:34:57;70.27;;;32.17;;
48861;SDS011;34681;49.188;-0.374;2023-08-01T10:37:23;60.50;;;28.03;;
48861;SDS011;34681;49.188;-0.374;2023-08-01T10:39:55;37.70;;;20.33;;
48861;SDS011;34681;49.188;-0.374;2023-08-01T10:42:22;51.27;;;21.97;;
48861;SDS011;34681;49.188;-0.374;2023-08-01T10:44:48;33.23;;;17.73;;
48861;SDS011;34681;49.188;-0.374;2023-08-01T10:47:13;25.03;;;11.97;;
48861;SDS011;34681;49.188;-0.374;2023-08-01T10:49:39;30.27;;;16.20;;
48861;SDS011;34681;49.188;-0.374;2023-08-01T10:52:17;29.27;;;14.67;;
48861;SDS011;34681;49.188;-0.374;2023-08-01T10:54:48;25.77;;;13.00;;
48861;SDS011;34681;49.188;-0.374;2023-08-01T10:57:22;16.97;;;10.60;;
48861;SDS011;34681;49.188;-0.374;2023-08-01T10:59:48;14.33;;;9.40;;
48861;SDS011;34681;49.188;-0.374;2023-08-01T11:02:19;22.00;;;11.83;;
48861;SDS011;34681;49.188;-0.374;2023-08-01T11:04:59;15.10;;;9.30;;
48861;SDS011;34681;49.188;-0.374;2023-08-01T11:07:25;11.40;;;8.10;;
48861;SDS011;34681;49.188;-0.374;2023-08-01T11:10:02;11.00;;;6.80;;
48861;SDS011;34681;49.188;-0.374;2023-08-01T11:12:34;15.63;;;8.07;;
48861;SDS011;34681;49.188;-0.374;2023-08-01T11:15:07;22.83;;;10.53;;
48861;SDS011;34681;49.188;-0.374;2023-08-01T11:17:38;27.40;;;17.00;;
48861;SDS011;34681;49.188;-0.374;2023-08-01T11:20:05;29.70;;;15.70;;
48861;SDS011;34681;49.188;-0.374;2023-08-01T11:22:35;16.60;;;12.23;;
48861;SDS011;34681;49.188;-0.374;2023-08-01T11:25:01;21.47;;;14.90;;
48861;SDS011;34681;49.188;-0.374;2023-08-01T11:27:28;25.43;;;16.13;;
48861;SDS011;34681;49.188;-0.374;2023-08-01T11:29:54;26.30;;;17.40;;
48861;SDS011;34681;49.188;-0.374;2023-08-01T11:32:20;25.50;;;16.80;;
48861;SDS011;34681;49.188;-0.374;2023-08-01T11:34:46;20.87;;;14.60;;
48861;SDS011;34681;49.188;-0.374;2023-08-01T11:37:12;13.87;;;9.10;;
48861;SDS011;34681;49.188;-0.374;2023-08-01T11:39:39;13.07;;;9.23;;
48861;SDS011;34681;49.188;-0.374;2023-08-01T11:42:05;10.70;;;8.93;;
48861;SDS011;34681;49.188;-0.374;2023-08-01T11:44:31;13.03;;;8.87;;
48861;SDS011;34681;49.188;-0.374;2023-08-01T11:46:57;15.67;;;10.30;;
48861;SDS011;34681;49.188;-0.374;2023-08-01T11:49:22;11.10;;;8.80;;
48861;SDS011;34681;49.188;-0.374;2023-08-01T11:51:48;14.80;;;8.83;;
48861;SDS011;34681;49.188;-0.374;2023-08-01T11:54:14;9.07;;;7.20;;
48861;SDS011;34681;49.188;-0.374;2023-08-01T11:56:40;9.27;;;6.60;;
48861;SDS011;34681;49.188;-0.374;2023-08-01T11:59:16;13.00;;;8.70;;
48861;SDS011;34681;49.188;-0.374;2023-08-01T12:01:46;10.50;;;8.57;;
48861;SDS011;34681;49.188;-0.374;2023-08-01T12:04:12;10.13;;;7.60;;
48861;SDS011;34681;49.188;-0.374;2023-08-01T12:06:52;11.50;;;7.33;;
48861;SDS011;34681;49.188;-0.374;2023-08-01T12:09:19;9.57;;;6.27;;
48861;SDS011;34681;49.188;-0.374;2023-08-01T12:11:45;4.60;;;4.20;;
48861;SDS011;34681;49.188;-0.374;2023-08-01T12:14:14;8.13;;;5.23;;
48861;SDS011;34681;49.188;-0.374;2023-08-01T12:16:45;5.53;;;4.60;;
48861;SDS011;34681;49.188;-0.374;2023-08-01T12:19:17;4.40;;;4.00;;
48861;SDS011;34681;49.188;-0.374;2023-08-01T12:21:44;4.90;;;4.40;;
48861;SDS011;34681;49.188;-0.374;2023-08-01T12:24:10;5.30;;;4.40;;
48861;SDS011;34681;49.188;-0.374;2023-08-01T12:26:35;5.30;;;4.63;;
48861;SDS011;34681;49.188;-0.374;2023-08-01T12:29:00;7.13;;;5.13;;
48861;SDS011;34681;49.188;-0.374;2023-08-01T12:31:26;8.73;;;5.20;;
48861;SDS011;34681;49.188;-0.374;2023-08-01T12:33:51;5.17;;;4.20;;
48861;SDS011;34681;49.188;-0.374;2023-08-01T12:36:18;6.77;;;3.83;;
48861;SDS011;34681;49.188;-0.374;2023-08-01T12:38:44;5.90;;;4.00;;
48861;SDS011;34681;49.188;-0.374;2023-08-01T12:41:09;4.20;;;3.73;;
48861;SDS011;34681;49.188;-0.374;2023-08-01T12:43:35;4.23;;;3.77;;
48861;SDS011;34681;49.188;-0.374;2023-08-01T12:46:00;7.00;;;3.80;;
48861;SDS011;34681;49.188;-0.374;2023-08-01T12:48:26;4.10;;;3.50;;
48861;SDS011;34681;49.188;-0.374;2023-08-01T12:50:51;5.37;;;3.73;;
48861;SDS011;34681;49.188;-0.374;2023-08-01T12:53:18;4.37;;;2.90;;
48861;SDS011;34681;49.188;-0.374;2023-08-01T12:55:43;4.93;;;3.57;;
48861;SDS011;34681;49.188;-0.374;2023-08-01T12:58:10;3.73;;;3.17;;
48861;SDS011;34681;49.188;-0.374;2023-08-01T13:00:35;3.43;;;3.23;;
48861;SDS011;34681;49.188;-0.374;2023-08-01T13:03:00;3.97;;;3.57;;
48861;SDS011;34681;49.188;-0.374;2023-08-01T13:05:26;7.23;;;3.73;;
48861;SDS011;34681;49.188;-0.374;2023-08-01T13:07:51;5.00;;;3.77;;
48861;SDS011;34681;49.188;-0.374;2023-08-01T13:10:17;4.07;;;3.77;;
48861;SDS011;34681;49.188;-0.374;2023-08-01T13:12:42;4.23;;;3.53;;
48861;SDS011;34681;49.188;-0.374;2023-08-01T13:15:08;5.10;;;3.67;;
48861;SDS011;34681;49.188;-0.374;2023-08-01T13:17:34;4.30;;;4.00;;
48861;SDS011;34681;49.188;-0.374;2023-08-01T13:19:59;4.10;;;3.67;;
48861;SDS011;34681;49.188;-0.374;2023-08-01T13:22:24;3.50;;;3.20;;
48861;SDS011;34681;49.188;-0.374;2023-08-01T13:24:50;3.97;;;3.47;;
48861;SDS011;34681;49.188;-0.374;2023-08-01T13:27:15;3.53;;;2.80;;
48861;SDS011;34681;49.188;-0.374;2023-08-01T13:29:40;3.83;;;3.37;;
48861;SDS011;34681;49.188;-0.374;2023-08-01T13:32:06;3.13;;;2.90;;
48861;SDS011;34681;49.188;-0.374;2023-08-01T13:34:32;4.80;;;3.70;;
48861;SDS011;34681;49.188;-0.374;2023-08-01T13:36:57;4.40;;;3.10;;
48861;SDS011;34681;49.188;-0.374;2023-08-01T13:39:23;5.00;;;3.10;;
48861;SDS011;34681;49.188;-0.374;2023-08-01T13:41:48;5.03;;;4.10;;
48861;SDS011;34681;49.188;-0.374;2023-08-01T13:44:13;3.30;;;3.00;;
48861;SDS011;34681;49.188;-0.374;2023-08-01T13:46:39;3.90;;;3.60;;
48861;SDS011;34681;49.188;-0.374;2023-08-01T13:49:04;4.93;;;4.53;;
48861;SDS011;34681;49.188;-0.374;2023-08-01T13:51:33;3.90;;;3.60;;
48861;SDS011;34681;49.188;-0.374;2023-08-01T13:53:58;7.53;;;4.00;;
48861;SDS011;34681;49.188;-0.374;2023-08-01T13:56:24;4.20;;;3.00;;
48861;SDS011;34681;49.188;-0.374;2023-08-01T13:58:50;3.63;;;3.43;;
48861;SDS011;34681;49.188;-0.374;2023-08-01T14:01:16;4.83;;;3.07;;
48861;SDS011;34681;49.188;-0.374;2023-08-01T14:03:43;3.30;;;3.03;;
48861;SDS011;34681;49.188;-0.374;2023-08-01T14:06:11;4.07;;;3.67;;
48861;SDS011;34681;49.188;-0.374;2023-08-01T14:08:37;3.40;;;3.20;;
48861;SDS011;34681;49.188;-0.374;2023-08-01T14:11:05;4.50;;;3.53;;
48861;SDS011;34681;49.188;-0.374;2023-08-01T14:13:31;3.40;;;3.10;;
48861;SDS011;34681;49.188;-0.374;2023-08-01T14:15:57;3.33;;;3.13;;
48861;SDS011;34681;49.188;-0.374;2023-08-01T14:18:23;3.27;;;2.97;;
48861;SDS011;34681;49.188;-0.374;2023-08-01T14:20:48;3.53;;;3.23;;
48861;SDS011;34681;49.188;-0.374;2023-08-01T14:23:14;3.10;;;2.90;;